Time;durP1;ratioP1;P1;durP2;ratioP2;P2;SDS_P1;SDS_P2;PMS_P1;PMS_P2;Temp;Humidity;BMP_temperature;BMP_pressure;BME280_temperature;BME280_humidity;BME280_pressure;Samples;Min_cycle;Max_cycle;Signal;HPM_P1;HPM_P2
2023/11/10 00:00:25;;;;;;;0.30;0.20;;;;;;;10.55;92.40;98720.81;5034200;28;20543;-50
2023/11/10 00:02:51;;;;;;;0.30;0.20;;;;;;;10.59;92.06;98729.47;5034012;28;20817;-51
2023/11/10 00:05:19;;;;;;;0.30;0.20;;;;;;;10.43;93.05;98742.72;5030421;28;20459;-50
2023/11/10 00:07:47;;;;;;;0.30;0.20;;;;;;;10.41;93.28;98738.41;5033840;28;20483;-50
2023/11/10 00:10:13;;;;;;;0.30;0.20;;;;;;;10.35;93.39;98748.44;5033870;28;21052;-50
2023/11/10 00:12:40;;;;;;;0.30;0.20;;;;;;;10.39;93.65;98743.81;5033949;28;20475;-50
2023/11/10 00:15:07;;;;;;;0.30;0.20;;;;;;;10.37;93.45;98743.91;5033974;28;20451;-50
2023/11/10 00:17:34;;;;;;;0.30;0.20;;;;;;;10.51;93.50;98732.53;5033759;28;20513;-50
2023/11/10 00:20:00;;;;;;;0.30;0.20;;;;;;;10.63;93.13;98731.03;5033751;28;20482;-50
2023/11/10 00:22:27;;;;;;;0.30;0.20;;;;;;;10.65;93.27;98740.63;5015964;28;20558;-50
2023/11/10 00:24:55;;;;;;;0.30;0.20;;;;;;;10.71;93.33;98746.56;5033496;28;20880;-50
2023/11/10 00:27:22;;;;;;;0.30;0.20;;;;;;;10.74;93.32;98744.59;5033689;28;20463;-50
2023/11/10 00:29:48;;;;;;;0.30;0.20;;;;;;;10.71;94.68;98749.22;5021570;28;20445;-50
2023/11/10 00:32:15;;;;;;;0.30;0.20;;;;;;;10.76;94.66;98752.47;5031685;28;20471;-50
2023/11/10 00:34:41;;;;;;;0.30;0.20;;;;;;;10.75;94.03;98758.75;5024148;28;20488;-51
2023/11/10 00:37:08;;;;;;;0.30;0.20;;;;;;;10.77;94.75;98754.19;5028770;28;20472;-50
2023/11/10 00:39:35;;;;;;;0.30;0.20;;;;;;;10.55;95.44;98752.72;5033554;28;20448;-50
2023/11/10 00:42:02;;;;;;;0.30;0.20;;;;;;;10.64;95.52;98754.00;5033337;28;20478;-50
2023/11/10 00:44:28;;;;;;;0.30;0.20;;;;;;;10.64;94.81;98752.19;5033272;28;20851;-50
2023/11/10 00:46:55;;;;;;;0.30;0.20;;;;;;;10.51;95.35;98743.16;5033256;28;20577;-50
2023/11/10 00:49:24;;;;;;;0.30;0.20;;;;;;;10.70;95.14;98747.50;5033332;28;20539;-50
2023/11/10 00:51:50;;;;;;;0.30;0.20;;;;;;;10.80;95.12;98746.06;5005059;28;20500;-50
2023/11/10 00:54:17;;;;;;;0.30;0.20;;;;;;;10.75;95.34;98750.78;5013510;28;20455;-50
2023/11/10 00:56:46;;;;;;;0.30;0.20;;;;;;;10.71;95.72;98744.78;5033092;28;20451;-50
2023/11/10 00:59:13;;;;;;;0.30;0.20;;;;;;;10.75;96.21;98746.31;5032974;28;20452;-50
2023/11/10 01:01:40;;;;;;;0.30;0.20;;;;;;;10.71;95.60;98760.72;5032972;28;20502;-50
2023/11/10 01:04:07;;;;;;;0.30;0.20;;;;;;;10.78;95.79;98754.09;5029169;28;20969;-50
2023/11/10 01:06:34;;;;;;;0.30;0.20;;;;;;;10.67;95.68;98765.31;5032654;28;21063;-50
2023/11/10 01:09:01;;;;;;;0.30;0.20;;;;;;;10.56;95.87;98748.25;5033495;28;20475;-49
2023/11/10 01:11:27;;;;;;;0.30;0.20;;;;;;;10.66;95.94;98729.06;5032954;28;20502;-49
2023/11/10 01:13:54;;;;;;;0.30;0.20;;;;;;;10.58;96.40;98727.78;5032718;28;20825;-49
2023/11/10 01:16:21;;;;;;;0.30;0.20;;;;;;;10.44;96.23;98722.34;5032644;28;20451;-50
2023/11/10 01:18:47;;;;;;;0.30;0.20;;;;;;;10.51;95.76;98724.56;5032505;28;20447;-50
2023/11/10 01:21:14;;;;;;;0.30;0.20;;;;;;;10.55;96.27;98725.25;5032620;28;20480;-49
2023/11/10 01:23:41;;;;;;;0.30;0.20;;;;;;;10.53;96.80;98719.16;5032383;28;20907;-49
2023/11/10 01:26:08;;;;;;;0.30;0.20;;;;;;;10.51;96.00;98713.09;5032611;28;20452;-49
2023/11/10 01:28:34;;;;;;;0.30;0.20;;;;;;;10.48;95.94;98713.25;5030537;28;20451;-50
2023/11/10 01:31:01;;;;;;;0.30;0.20;;;;;;;10.23;97.42;98711.91;5021485;28;20499;-49
2023/11/10 01:33:27;;;;;;;0.30;0.20;;;;;;;10.20;97.08;98706.72;5032229;28;20578;-49
2023/11/10 01:35:54;;;;;;;0.30;0.20;;;;;;;10.44;96.79;98706.41;5022217;28;20452;-49
2023/11/10 01:38:20;;;;;;;0.30;0.20;;;;;;;10.31;96.44;98707.06;5028156;28;20547;-49
2023/11/10 01:40:48;;;;;;;0.30;0.20;;;;;;;10.52;95.10;98707.69;5032119;28;20988;-49
2023/11/10 01:43:14;;;;;;;0.30;0.20;;;;;;;10.60;94.92;98709.94;5032201;28;20455;-49
2023/11/10 01:45:42;;;;;;;0.30;0.20;;;;;;;10.38;95.89;98713.72;5032105;28;20521;-50
2023/11/10 01:48:11;;;;;;;0.30;0.20;;;;;;;10.49;95.86;98707.00;5031936;28;20893;-50
2023/11/10 01:50:40;;;;;;;0.30;0.20;;;;;;;10.48;95.78;98698.16;5032108;28;20526;-50
2023/11/10 01:53:09;;;;;;;0.30;0.20;;;;;;;10.57;95.63;98694.16;5020123;28;20539;-50
2023/11/10 01:55:37;;;;;;;0.30;0.20;;;;;;;10.56;95.61;98685.34;5023104;28;20501;-50
2023/11/10 01:58:08;;;;;;;0.30;0.20;;;;;;;10.50;95.54;98687.47;5031996;28;20455;-49
2023/11/10 02:00:36;;;;;;;0.30;0.20;;;;;;;10.48;95.56;98674.25;5031819;28;20447;-50
2023/11/10 02:03:04;;;;;;;0.30;0.20;;;;;;;10.49;95.98;98672.47;5031872;28;20483;-50
2023/11/10 02:05:32;;;;;;;0.30;0.20;;;;;;;10.48;95.51;98679.56;5028283;28;20972;-49
2023/11/10 02:08:00;;;;;;;0.30;0.20;;;;;;;10.53;95.45;98674.00;5031826;28;20486;-50
2023/11/10 02:10:26;;;;;;;0.30;0.20;;;;;;;10.42;95.17;98674.63;5031664;28;20523;-50
2023/11/10 02:12:54;;;;;;;0.30;0.20;;;;;;;10.58;95.29;98686.13;5031692;28;20944;-50
2023/11/10 02:15:22;;;;;;;0.30;0.20;;;;;;;10.45;95.04;98677.09;5031373;28;20484;-49
2023/11/10 02:17:49;;;;;;;0.30;0.20;;;;;;;10.59;94.55;98682.50;5031852;28;20510;-50
2023/11/10 02:20:15;;;;;;;0.30;0.20;;;;;;;10.53;94.21;98666.03;5031461;28;20856;-50
2023/11/10 02:22:49;;;;;;;0.30;0.20;;;;;;;10.64;93.85;98666.31;5031524;28;20825;-50
2023/11/10 02:25:18;;;;;;;0.30;0.20;;;;;;;10.68;93.42;98667.84;5031519;28;20451;-50
2023/11/10 02:27:45;;;;;;;0.30;0.20;;;;;;;10.62;93.60;98668.19;5031422;28;21011;-50
2023/11/10 02:30:13;;;;;;;0.30;0.20;;;;;;;10.52;93.82;98659.00;5018213;28;20488;-49
2023/11/10 02:32:40;;;;;;;0.30;0.20;;;;;;;10.71;92.78;98664.19;5031614;28;20508;-49
2023/11/10 02:35:08;;;;;;;0.30;0.20;;;;;;;10.80;92.36;98659.19;5021056;28;20900;-50
2023/11/10 02:37:35;;;;;;;0.30;0.20;;;;;;;10.89;92.41;98666.66;5027237;28;20910;-50
2023/11/10 02:40:06;;;;;;;0.30;0.20;;;;;;;10.87;92.23;98668.56;5031304;28;20483;-49
2023/11/10 02:42:36;;;;;;;0.30;0.20;;;;;;;10.82;92.99;98662.63;5031259;28;20459;-50
2023/11/10 02:45:04;;;;;;;0.30;0.20;;;;;;;10.82;92.81;98669.75;5031503;28;20462;-50
2023/11/10 02:47:31;;;;;;;0.30;0.20;;;;;;;10.87;93.08;98671.22;5031356;28;20903;-49
2023/11/10 02:49:58;;;;;;;0.30;0.20;;;;;;;10.81;92.08;98671.53;5031338;28;20452;-50
2023/11/10 02:52:25;;;;;;;0.30;0.20;;;;;;;10.88;91.71;98672.06;5046225;23;20526;-50
2023/11/10 02:54:51;;;;;;;0.30;0.20;;;;;;;10.79;92.25;98665.47;5032842;28;20471;-50
2023/11/10 02:57:18;;;;;;;0.30;0.20;;;;;;;10.72;92.17;98668.56;5034538;28;20992;-50
2023/11/10 02:59:44;;;;;;;0.30;0.20;;;;;;;10.70;91.67;98663.34;5035399;28;20455;-50
2023/11/10 03:02:11;;;;;;;0.30;0.20;;;;;;;10.74;92.77;98656.03;5035113;28;21010;-50
2023/11/10 03:04:40;;;;;;;0.30;0.20;;;;;;;10.71;92.84;98665.03;5031114;28;20451;-51
2023/11/10 03:07:07;;;;;;;0.30;0.20;;;;;;;10.84;92.97;98663.41;5035208;28;20459;-50
2023/11/10 03:09:34;;;;;;;0.30;0.20;;;;;;;10.76;92.63;98660.31;5034900;28;20800;-51
2023/11/10 03:12:00;;;;;;;0.30;0.20;;;;;;;10.79;92.57;98652.16;5035194;28;20499;-50
2023/11/10 03:14:27;;;;;;;0.30;0.20;;;;;;;10.75;93.65;98655.94;5035069;28;20451;-51
2023/11/10 03:16:53;;;;;;;0.30;0.20;;;;;;;10.45;94.12;98655.00;5017600;28;20525;-50
2023/11/10 03:19:20;;;;;;;0.30;0.20;;;;;;;10.55;93.75;98659.72;5034724;28;20455;-50
2023/11/10 03:21:46;;;;;;;0.30;0.20;;;;;;;10.42;95.05;98655.16;5034795;28;20467;-50
2023/11/10 03:24:13;;;;;;;0.30;0.20;;;;;;;10.21;95.59;98658.00;5034716;28;20812;-50
2023/11/10 03:26:40;;;;;;;0.30;0.20;;;;;;;10.23;96.02;98647.31;5034685;28;20550;-50
2023/11/10 03:29:07;;;;;;;0.30;0.20;;;;;;;10.35;94.85;98651.97;5028578;28;20486;-51
2023/11/10 03:31:34;;;;;;;0.30;0.20;;;;;;;10.43;94.73;98652.41;5027913;28;20549;-50
2023/11/10 03:34:01;;;;;;;0.30;0.20;;;;;;;10.48;93.84;98657.47;5030928;28;20448;-49
2023/11/10 03:36:28;;;;;;;0.30;0.20;;;;;;;10.53;92.88;98650.94;5023693;28;20501;-50
2023/11/10 03:38:54;;;;;;;0.30;0.20;;;;;;;10.55;92.74;98653.53;5034482;28;20487;-50
2023/11/10 03:41:21;;;;;;;0.30;0.20;;;;;;;10.65;92.41;98655.59;5034505;28;20467;-50
2023/11/10 03:43:48;;;;;;;0.30;0.20;;;;;;;10.52;92.35;98653.69;5034625;28;20546;-51
2023/11/10 03:46:14;;;;;;;0.30;0.20;;;;;;;10.58;92.27;98648.91;5034364;28;20455;-50
2023/11/10 03:48:41;;;;;;;0.30;0.20;;;;;;;10.64;91.93;98653.03;5034546;28;20451;-50
2023/11/10 03:51:11;;;;;;;0.30;0.20;;;;;;;10.50;92.55;98661.75;5034256;28;20582;-50
2023/11/10 03:53:41;;;;;;;0.30;0.20;;;;;;;10.44;92.19;98651.47;5018174;28;20533;-50
2023/11/10 03:56:08;;;;;;;0.30;0.20;;;;;;;10.35;93.56;98657.28;5029695;28;20455;-51
2023/11/10 03:58:35;;;;;;;0.30;0.20;;;;;;;10.27;92.55;98662.97;5034349;28;20483;-50
2023/11/10 04:01:07;;;;;;;0.30;0.20;;;;;;;10.48;92.60;98668.94;5033842;28;20888;-51
2023/11/10 04:03:33;;;;;;;0.30;0.20;;;;;;;10.38;92.00;98668.59;5034165;28;20455;-51
2023/11/10 04:06:00;;;;;;;0.30;0.20;;;;;;;10.49;91.67;98661.84;5026528;28;20971;-50
2023/11/10 04:08:26;;;;;;;0.30;0.20;;;;;;;10.59;90.87;98661.25;5033078;28;20455;-50
2023/11/10 04:10:53;;;;;;;0.30;0.20;;;;;;;10.20;91.30;98658.06;5033774;28;20455;-51
2023/11/10 04:13:20;;;;;;;0.30;0.20;;;;;;;10.26;91.28;98653.31;5034092;28;20458;-50
2023/11/10 04:15:46;;;;;;;0.30;0.20;;;;;;;10.39;90.46;98657.00;5033687;28;20514;-49
2023/11/10 04:18:16;;;;;;;0.30;0.20;;;;;;;10.27;91.11;98654.16;5033738;28;20542;-49
2023/11/10 04:20:45;;;;;;;0.30;0.20;;;;;;;10.50;91.44;98659.09;5033673;28;20443;-51
2023/11/10 04:23:14;;;;;;;0.30;0.20;;;;;;;10.41;90.76;98656.94;5033863;28;20447;-50
2023/11/10 04:25:41;;;;;;;0.30;0.20;;;;;;;10.25;90.92;98658.69;5033802;28;20509;-49
2023/11/10 04:28:11;;;;;;;0.30;0.20;;;;;;;10.25;90.52;98661.34;5033574;28;20451;-50
2023/11/10 04:30:38;;;;;;;0.30;0.20;;;;;;;10.44;90.88;98661.25;5020091;28;20450;-50
2023/11/10 04:33:04;;;;;;;0.30;0.20;;;;;;;10.32;90.28;98670.72;5033701;28;20595;-50
2023/11/10 04:35:31;;;;;;;0.30;0.20;;;;;;;10.38;90.51;98668.59;5023437;28;20489;-48
2023/11/10 04:37:58;;;;;;;0.30;0.20;;;;;;;10.20;91.19;98674.00;5029369;28;20466;-50
2023/11/10 04:40:27;;;;;;;0.30;0.20;;;;;;;10.47;90.25;98672.56;5033391;28;20459;-49
2023/11/10 04:42:55;;;;;;;0.30;0.20;;;;;;;10.38;91.15;98673.91;5033277;28;20468;-49
2023/11/10 04:45:24;;;;;;;0.30;0.20;;;;;;;10.12;91.95;98674.38;5007336;28;20502;-49
2023/11/10 04:47:53;;;;;;;0.30;0.20;;;;;;;10.19;92.66;98673.13;5033230;28;20474;-49
2023/11/10 04:50:20;;;;;;;0.30;0.20;;;;;;;10.13;92.49;98667.28;5033470;28;20451;-49
2023/11/10 04:52:48;;;;;;;0.30;0.20;;;;;;;10.09;92.70;98661.28;5023800;28;20902;-52
2023/11/10 04:55:14;;;;;;;0.30;0.20;;;;;;;9.94;93.95;98659.44;5021501;28;20451;-50
2023/11/10 04:57:41;;;;;;;0.30;0.20;;;;;;;9.98;94.34;98668.94;5033010;28;20951;-50
2023/11/10 05:00:08;;;;;;;0.30;0.20;;;;;;;9.96;94.48;98670.81;5033398;28;21022;-50
2023/11/10 05:02:34;;;;;;;0.30;0.20;;;;;;;9.95;94.56;98674.41;5033010;28;20558;-49
2023/11/10 05:05:01;;;;;;;0.30;0.20;;;;;;;9.95;94.92;98671.78;5029183;28;20883;-49
2023/11/10 05:07:27;;;;;;;0.30;0.20;;;;;;;9.85;94.19;98676.69;5032839;28;21046;-49
2023/11/10 05:09:54;;;;;;;0.30;0.20;;;;;;;9.99;93.63;98675.97;5033190;28;20460;-50
2023/11/10 05:12:21;;;;;;;0.30;0.20;;;;;;;9.82;93.95;98668.03;5032497;28;20520;-50
2023/11/10 05:14:47;;;;;;;0.30;0.20;;;;;;;9.65;93.61;98672.41;5032721;28;20517;-50
2023/11/10 05:17:14;;;;;;;0.30;0.20;;;;;;;9.73;94.46;98664.03;5032718;28;20554;-50
2023/11/10 05:19:40;;;;;;;0.30;0.20;;;;;;;9.72;93.10;98663.19;5032429;28;20456;-49
2023/11/10 05:22:07;;;;;;;0.30;0.20;;;;;;;9.62;93.15;98661.09;5032493;28;20464;-50
2023/11/10 05:24:37;;;;;;;0.30;0.20;;;;;;;9.45;93.87;98669.88;5032646;28;20447;-50
2023/11/10 05:27:05;;;;;;;0.30;0.20;;;;;;;9.54;93.54;98672.09;5032495;28;20811;-50
2023/11/10 05:29:31;;;;;;;0.30;0.20;;;;;;;9.55;93.35;98675.59;5023152;28;20467;-50
2023/11/10 05:31:58;;;;;;;0.30;0.20;;;;;;;9.42;93.42;98678.88;5028669;28;20530;-50
2023/11/10 05:34:25;;;;;;;0.30;0.20;;;;;;;9.49;93.00;98682.09;5025445;28;20458;-49
2023/11/10 05:36:52;;;;;;;0.30;0.20;;;;;;;9.46;92.93;98671.63;5024552;28;20456;-50
2023/11/10 05:39:19;;;;;;;0.30;0.20;;;;;;;9.12;93.76;98683.88;5032315;28;20451;-49
2023/11/10 05:41:45;;;;;;;0.30;0.20;;;;;;;9.28;93.14;98691.09;5032562;28;20495;-50
2023/11/10 05:44:12;;;;;;;0.30;0.20;;;;;;;8.96;94.36;98676.75;5032466;28;20472;-49
2023/11/10 05:46:38;;;;;;;0.30;0.20;;;;;;;9.09;94.32;98686.69;5032213;28;20452;-50
2023/11/10 05:49:08;;;;;;;0.30;0.20;;;;;;;8.99;93.92;98688.06;5032286;28;20455;-49
2023/11/10 05:51:34;;;;;;;0.30;0.20;;;;;;;8.99;94.37;98688.06;5031866;28;20499;-50
2023/11/10 05:54:00;;;;;;;0.30;0.20;;;;;;;9.07;94.39;98700.97;5012755;28;20457;-50
2023/11/10 05:56:27;;;;;;;0.30;0.20;;;;;;;8.95;94.83;98701.53;5029324;28;20470;-50
2023/11/10 05:58:53;;;;;;;0.30;0.20;;;;;;;8.81;94.87;98704.84;5032152;28;20542;-50
2023/11/10 06:01:23;;;;;;;0.30;0.20;;;;;;;8.96;95.27;98695.31;5031691;28;20471;-48
2023/11/10 06:03:51;;;;;;;0.30;0.20;;;;;;;8.87;95.20;98699.25;5029757;28;20452;-49
2023/11/10 06:06:18;;;;;;;0.30;0.20;;;;;;;8.94;95.17;98705.13;5029524;28;20451;-49
2023/11/10 06:08:44;;;;;;;0.30;0.20;;;;;;;8.99;94.77;98706.63;5031591;28;20458;-49
2023/11/10 06:11:21;;;;;;;0.30;0.20;;;;;;;9.07;94.99;98707.13;5031850;28;20468;-48
2023/11/10 06:13:51;;;;;;;0.30;0.20;;;;;;;9.12;95.00;98710.41;5031972;28;20485;-49
2023/11/10 06:16:18;;;;;;;0.30;0.20;;;;;;;9.18;94.82;98707.47;5005361;28;20887;-50
2023/11/10 06:18:45;;;;;;;0.30;0.20;;;;;;;9.29;94.89;98706.06;5031928;28;20525;-49
2023/11/10 06:21:13;;;;;;;0.30;0.20;;;;;;;9.31;94.98;98712.16;5031487;28;20476;-49
2023/11/10 06:23:39;;;;;;;0.30;0.20;;;;;;;9.24;95.12;98713.41;5031975;28;20491;-49
2023/11/10 06:26:06;;;;;;;0.30;0.20;;;;;;;9.36;95.56;98715.44;5031894;28;20460;-49
2023/11/10 06:28:35;;;;;;;0.30;0.20;;;;;;;9.43;94.63;98722.16;5029831;28;20452;-50
2023/11/10 06:31:03;;;;;;;0.30;0.20;;;;;;;9.34;94.71;98725.28;5019652;28;20935;-50
2023/11/10 06:33:30;;;;;;;0.30;0.20;;;;;;;9.37;94.72;98739.25;5031294;28;20865;-48
2023/11/10 06:35:58;;;;;;;0.30;0.20;;;;;;;9.32;94.94;98740.38;5021256;28;20451;-50
2023/11/10 06:38:25;;;;;;;0.30;0.20;;;;;;;9.20;95.41;98748.00;5027715;28;20491;-50
2023/11/10 06:40:53;;;;;;;0.30;0.20;;;;;;;9.02;95.51;98745.34;5031584;28;20479;-50
2023/11/10 06:43:19;;;;;;;0.30;0.20;;;;;;;9.19;95.15;98748.09;5031408;28;20502;-49
2023/11/10 06:45:46;;;;;;;0.30;0.20;;;;;;;9.07;95.63;98741.56;5031472;28;20539;-49
2023/11/10 06:48:12;;;;;;;0.30;0.20;;;;;;;9.20;95.12;98757.75;5031172;28;20931;-50
2023/11/10 06:50:40;;;;;;;0.30;0.20;;;;;;;9.11;95.31;98758.19;5031479;28;20521;-49
2023/11/10 06:53:09;;;;;;;0.30;0.20;;;;;;;9.08;95.12;98756.53;5019233;28;21056;-50
2023/11/10 06:55:37;;;;;;;0.30;0.20;;;;;;;9.10;94.99;98765.28;5022112;28;21039;-49
2023/11/10 06:58:05;;;;;;;0.30;0.20;;;;;;;9.17;95.42;98764.03;5031335;28;20483;-49
2023/11/10 07:00:32;;;;;;;0.30;0.20;;;;;;;9.12;95.43;98762.56;5031194;28;20542;-49
2023/11/10 07:03:02;;;;;;;0.30;0.20;;;;;;;9.23;95.58;98764.69;5030930;28;20494;-49
2023/11/10 07:05:29;;;;;;;0.30;0.20;;;;;;;9.18;95.47;98773.75;5027317;28;20684;-49
2023/11/10 07:07:59;;;;;;;0.30;0.20;;;;;;;9.14;95.07;98766.84;5031334;28;20475;-49
2023/11/10 07:10:28;;;;;;;0.30;0.20;;;;;;;9.21;95.59;98772.72;5031267;28;20451;-49
2023/11/10 07:12:55;;;;;;;0.30;0.20;;;;;;;9.26;95.49;98765.41;5031240;28;20503;-50
2023/11/10 07:15:21;;;;;;;0.30;0.20;;;;;;;9.26;95.15;98776.00;5031055;28;20456;-49
2023/11/10 07:17:48;;;;;;;0.30;0.20;;;;;;;9.35;95.08;98780.88;5031447;28;20447;-50
2023/11/10 07:20:14;;;;;;;0.30;0.20;;;;;;;9.51;94.56;98778.34;5031683;28;20509;-50
2023/11/10 07:22:41;;;;;;;0.30;0.20;;;;;;;9.46;94.99;98781.22;5030969;28;20463;-49
2023/11/10 07:25:07;;;;;;;0.30;0.20;;;;;;;9.46;94.71;98783.03;5031274;28;20534;-49
2023/11/10 07:27:34;;;;;;;0.30;0.20;;;;;;;9.51;94.39;98783.66;5030947;28;20455;-48
2023/11/10 07:30:01;;;;;;;0.30;0.20;;;;;;;9.47;94.97;98784.75;5017755;28;20880;-49
2023/11/10 07:32:31;;;;;;;0.30;0.20;;;;;;;9.61;95.19;98776.97;5030925;28;20527;-50
2023/11/10 07:34:58;;;;;;;0.30;0.20;;;;;;;9.65;94.72;98775.88;5020956;28;20461;-50
2023/11/10 07:37:34;;;;;;;0.30;0.20;;;;;;;9.68;93.52;98774.84;5027003;28;20509;-49
2023/11/10 07:40:05;;;;;;;0.30;0.20;;;;;;;9.74;93.67;98777.22;5030926;28;20455;-48
2023/11/10 07:42:32;;;;;;;0.30;0.20;;;;;;;9.83;93.20;98778.53;5032554;28;20550;-49
2023/11/10 07:44:59;;;;;;;0.30;0.20;;;;;;;9.85;93.27;98779.31;5034490;28;20455;-49
2023/11/10 07:47:26;;;;;;;0.30;0.20;;;;;;;9.87;92.82;98793.38;5034375;28;20499;-50
2023/11/10 07:49:52;;;;;;;0.30;0.20;;;;;;;10.02;92.72;98788.19;5034225;28;20999;-49
2023/11/10 07:52:20;;;;;;;0.30;0.20;;;;;;;9.95;92.85;98788.56;5010844;28;20861;-50
2023/11/10 07:54:46;;;;;;;0.30;0.20;;;;;;;10.17;92.16;98797.16;5018636;28;20448;-49
2023/11/10 07:57:27;;;;;;;0.30;0.20;;;;;;;10.15;92.09;98799.03;5034383;28;20455;-49
2023/11/10 07:59:54;;;;;;;0.30;0.20;;;;;;;10.26;92.24;98801.16;5034175;28;20456;-49
2023/11/10 08:02:20;;;;;;;0.30;0.20;;;;;;;10.19;92.24;98803.25;5034043;28;20562;-49
2023/11/10 08:04:47;;;;;;;0.30;0.20;;;;;;;10.23;91.98;98802.19;5030975;28;21011;-50
2023/11/10 08:07:14;;;;;;;0.30;0.20;;;;;;;10.24;91.54;98800.38;5033898;28;20475;-49
2023/11/10 08:09:40;;;;;;;0.30;0.20;;;;;;;10.35;91.59;98798.03;5033919;28;20937;-49
2023/11/10 08:12:07;;;;;;;0.30;0.20;;;;;;;10.32;91.49;98795.53;5033778;28;20506;-49
2023/11/10 08:14:35;;;;;;;0.30;0.20;;;;;;;10.45;90.45;98791.31;5033875;28;20878;-50
2023/11/10 08:17:03;;;;;;;0.30;0.20;;;;;;;10.44;90.80;98786.94;5033642;28;20448;-49
2023/11/10 08:19:29;;;;;;;0.30;0.20;;;;;;;10.31;90.46;98777.91;5033833;28;20542;-48
2023/11/10 08:21:56;;;;;;;0.30;0.20;;;;;;;10.20;90.42;98780.22;5033444;28;20471;-50
2023/11/10 08:24:26;;;;;;;0.30;0.20;;;;;;;10.56;90.07;98783.66;5033853;28;20513;-50
2023/11/10 08:26:53;;;;;;;0.30;0.20;;;;;;;10.55;89.63;98787.25;5033532;28;20451;-50
2023/11/10 08:29:21;;;;;;;0.30;0.20;;;;;;;10.55;90.24;98786.34;5025694;28;20551;-49
2023/11/10 08:31:49;;;;;;;0.30;0.20;;;;;;;10.80;89.63;98785.91;5028540;28;20543;-50
2023/11/10 08:34:16;;;;;;;0.30;0.20;;;;;;;11.06;88.91;98789.81;5027885;28;20895;-49
2023/11/10 08:36:43;;;;;;;0.30;0.20;;;;;;;10.78;88.95;98796.63;5024519;28;20551;-49
2023/11/10 08:39:10;;;;;;;0.30;0.20;;;;;;;10.87;88.71;98789.97;5033327;28;20456;-49
2023/11/10 08:41:36;;;;;;;0.30;0.20;;;;;;;10.86;88.35;98805.06;5033343;28;20504;-49
2023/11/10 08:44:03;;;;;;;0.30;0.20;;;;;;;10.83;89.30;98802.59;5033614;28;20451;-50
2023/11/10 08:46:32;;;;;;;0.30;0.20;;;;;;;11.05;88.83;98807.59;5033197;28;20452;-49
2023/11/10 08:49:03;;;;;;;0.30;0.20;;;;;;;10.85;89.72;98807.81;5033247;28;20452;-50
2023/11/10 08:51:29;;;;;;;0.30;0.20;;;;;;;11.00;89.18;98800.81;5033750;28;20533;-47
2023/11/10 08:53:57;;;;;;;0.30;0.20;;;;;;;11.09;88.84;98797.63;5013901;28;20499;-47
2023/11/10 08:56:23;;;;;;;0.30;0.20;;;;;;;11.36;88.14;98803.22;5029989;28;20487;-47
2023/11/10 08:58:49;;;;;;;0.30;0.20;;;;;;;11.54;88.57;98796.91;5033239;28;20451;-48
2023/11/10 09:01:16;;;;;;;0.30;0.20;;;;;;;11.49;86.56;98797.13;5033092;28;20562;-47
2023/11/10 09:03:42;;;;;;;0.30;0.20;;;;;;;11.41;86.76;98794.06;5031607;28;20477;-47
2023/11/10 09:06:09;;;;;;;0.30;0.20;;;;;;;11.18;86.47;98791.81;5030287;28;20456;-47
2023/11/10 09:08:36;;;;;;;0.30;0.20;;;;;;;11.07;86.62;98791.53;5032928;28;20960;-47
2023/11/10 09:11:02;;;;;;;0.30;0.20;;;;;;;11.27;86.75;98791.31;5032845;28;20467;-47
2023/11/10 09:13:29;;;;;;;0.30;0.20;;;;;;;11.42;86.32;98789.59;5032794;28;20490;-47
2023/11/10 09:15:55;;;;;;;0.30;0.20;;;;;;;11.45;85.94;98798.25;5032512;28;20447;-47
2023/11/10 09:18:28;;;;;;;0.30;0.20;;;;;;;11.61;85.80;98798.25;5033117;28;20538;-47
2023/11/10 09:20:54;;;;;;;0.30;0.20;;;;;;;11.37;85.67;98802.28;5032594;28;20497;-48
2023/11/10 09:23:22;;;;;;;0.30;0.20;;;;;;;11.30;86.72;98801.78;5032811;28;20534;-47
2023/11/10 09:25:49;;;;;;;0.30;0.20;;;;;;;11.28;88.08;98801.00;5032550;28;20882;-47
2023/11/10 09:28:17;;;;;;;0.30;0.20;;;;;;;11.31;86.54;98792.84;5032629;28;20447;-47
2023/11/10 09:30:44;;;;;;;0.30;0.20;;;;;;;11.15;87.81;98787.53;5019061;28;20475;-47
2023/11/10 09:33:11;;;;;;;0.30;0.20;;;;;;;11.33;86.98;98788.31;5032582;28;20537;-48
2023/11/10 09:35:37;;;;;;;0.30;0.20;;;;;;;11.42;86.37;98793.13;5022026;28;20464;-48
2023/11/10 09:38:04;;;;;;;0.30;0.20;;;;;;;11.20;87.13;98798.75;5028422;28;20505;-48
2023/11/10 09:40:30;;;;;;;0.30;0.20;;;;;;;10.93;86.98;98793.16;5006375;28;20447;-48
2023/11/10 09:42:59;;;;;;;0.30;0.20;;;;;;;11.33;86.06;98808.72;5032264;28;20503;-48
2023/11/10 09:45:27;;;;;;;0.30;0.20;;;;;;;11.56;86.74;98803.84;5032315;28;20825;-48
2023/11/10 09:47:54;;;;;;;0.30;0.20;;;;;;;11.53;85.88;98804.03;5032338;28;20462;-48
2023/11/10 09:50:25;;;;;;;0.30;0.20;;;;;;;11.50;85.47;98806.84;5032594;28;20455;-47
2023/11/10 09:52:55;;;;;;;0.30;0.20;;;;;;;11.49;84.91;98806.94;5022213;28;20563;-47
2023/11/10 09:55:22;;;;;;;0.30;0.20;;;;;;;11.80;85.20;98809.63;5021611;28;20959;-47
2023/11/10 09:57:54;;;;;;;0.30;0.20;;;;;;;11.89;85.18;98799.38;5033062;28;20471;-47
2023/11/10 10:00:21;;;;;;;0.30;0.20;;;;;;;11.71;84.88;98799.44;5032599;28;20827;-47
2023/11/10 10:02:48;;;;;;;0.30;0.20;;;;;;;11.81;84.72;98802.47;5014194;28;20468;-48
2023/11/10 10:05:15;;;;;;;0.30;0.20;;;;;;;11.81;85.02;98798.03;5027689;28;20452;-47
2023/11/10 10:07:44;;;;;;;0.30;0.20;;;;;;;11.65;84.98;98797.16;5031840;28;20550;-47
2023/11/10 10:10:11;;;;;;;0.30;0.20;;;;;;;11.74;84.88;98803.72;5014409;28;20462;-47
2023/11/10 10:12:39;;;;;;;0.30;0.20;;;;;;;11.58;84.08;98801.09;5031986;28;20518;-47
2023/11/10 10:15:06;;;;;;;0.30;0.20;;;;;;;11.57;82.87;98808.22;5031930;28;20452;-48
2023/11/10 10:17:38;;;;;;;0.30;0.20;;;;;;;11.78;82.19;98808.78;5031680;28;20952;-47
2023/11/10 10:20:16;;;;;;;0.30;0.20;;;;;;;11.54;81.62;98802.22;5031883;28;20475;-47
2023/11/10 10:22:47;;;;;;;0.30;0.20;;;;;;;11.56;81.41;98792.34;5031634;28;20467;-47
2023/11/10 10:25:14;;;;;;;0.30;0.20;;;;;;;11.62;81.00;98793.78;5031850;28;20452;-47
2023/11/10 10:27:43;;;;;;;0.30;0.20;;;;;;;11.58;82.08;98795.78;5031722;28;20487;-47
2023/11/10 10:30:10;;;;;;;0.30;0.20;;;;;;;11.61;82.32;98790.25;5018378;28;20452;-47
2023/11/10 10:32:37;;;;;;;0.30;0.20;;;;;;;11.34;82.47;98790.03;5031681;28;20476;-48
2023/11/10 10:35:04;;;;;;;0.30;0.20;;;;;;;11.34;82.64;98778.53;5021162;28;20461;-47
2023/11/10 10:37:31;;;;;;;0.30;0.20;;;;;;;11.27;82.67;98786.84;5027515;28;20513;-47
2023/11/10 10:40:00;;;;;;;0.30;0.20;;;;;;;11.16;83.27;98786.59;5031495;28;20447;-48
2023/11/10 10:42:34;;;;;;;0.30;0.20;;;;;;;11.40;82.54;98791.50;5031572;28;21012;-47
2023/11/10 10:45:04;;;;;;;0.30;0.20;;;;;;;11.46;81.29;98783.16;5031526;28;20456;-47
2023/11/10 10:47:37;;;;;;;0.30;0.20;;;;;;;11.33;81.55;98784.78;5031300;28;20472;-48
2023/11/10 10:50:07;;;;;;;0.30;0.20;;;;;;;11.45;82.08;98769.00;5031675;28;20456;-48
2023/11/10 10:52:34;;;;;;;0.30;0.20;;;;;;;11.69;81.11;98772.06;5023706;28;21011;-47
2023/11/10 10:55:05;;;;;;;0.30;0.20;;;;;;;11.65;80.24;98770.53;5018043;28;20937;-47
2023/11/10 10:57:39;;;;;;;0.30;0.20;;;;;;;11.98;79.79;98770.41;5031526;28;20451;-47
2023/11/10 11:00:09;;;;;;;0.30;0.20;;;;;;;11.96;79.35;98764.31;5031327;28;20447;-47
2023/11/10 11:02:43;;;;;;;0.30;0.20;;;;;;;11.99;79.25;98760.59;5031229;28;20900;-47
2023/11/10 11:05:45;;;;;;;0.30;0.20;;;;;;;12.00;79.83;98755.19;5028505;28;20499;-47
2023/11/10 11:08:38;;;;;;;0.30;0.20;;;;;;;11.90;79.39;98754.00;5008202;28;20537;-47
2023/11/10 11:11:34;;;;;;;0.30;0.20;;;;;;;12.26;78.78;98752.78;5031324;28;20474;-47
2023/11/10 11:14:24;;;;;;;0.30;0.20;;;;;;;12.08;77.91;98755.59;5031121;28;20857;-47
2023/11/10 11:17:21;;;;;;;0.30;0.20;;;;;;;11.94;76.57;98758.22;5032058;28;20542;-47
2023/11/10 11:19:49;;;;;;;0.30;0.20;;;;;;;12.14;76.90;98749.03;5015139;28;20440;-47
2023/11/10 11:22:15;;;;;;;0.30;0.20;;;;;;;11.95;76.97;98749.28;5035049;28;20467;-47
2023/11/10 11:24:44;;;;;;;0.30;0.20;;;;;;;11.98;77.01;98746.44;5034811;28;20443;-47
2023/11/10 11:27:21;;;;;;;0.30;0.20;;;;;;;12.09;77.41;98744.00;5035047;28;20935;-47
2023/11/10 11:29:55;;;;;;;0.30;0.20;;;;;;;12.39;77.01;98743.94;5022729;28;20447;-47
2023/11/10 11:32:25;;;;;;;0.30;0.20;;;;;;;12.33;77.40;98746.13;5034363;28;20522;-47
2023/11/10 11:34:52;;;;;;;0.30;0.20;;;;;;;12.32;77.76;98744.41;5023812;28;20492;-48
2023/11/10 11:37:19;;;;;;;0.30;0.20;;;;;;;12.34;77.34;98740.72;5013042;28;20525;-47
2023/11/10 11:39:46;;;;;;;0.30;0.20;;;;;;;12.58;77.33;98741.00;5034196;28;20489;-47